METAR Data

Data at: 0239 UTC 16 Jan 2019

METAR for:KISP (Islip/Macarthur Arpt, NY, US)
Text:KISP 160156Z 00000KT 10SM FEW250 M03/M08 A3013 RMK AO2 SLP203 T10331078
Temperature: -3.3°C ( 26°F)
Dewpoint: -7.8°C ( 18°F) [RH = 71%]
Pressure (altimeter):30.13 inches Hg (1020.4 mb) [Sea level pressure: 1020.3 mb]
Winds:calm
Visibility:10 or more sm (16+ km)
Ceiling:at least 12,000 feet AGL
Clouds: few clouds at 25000 feet AGL